• Join FlightAware (Why Join?)
  • Login
  • US Flag 
09:19AM EST


 

Airport Tracker/Info


-or-


 

Live Flight TrackerFlight Track Log ✈ N468ER ✈ 09-Sep-2013 ✈ KCOD - KBIL

Flight Track Log - Related Links

Times and Time Zones

All times are in EDT time to prevent confusion due to time zone crossing. See the N468ER flight status page for this flight to view local times or setup timezone preferences in your user account.

Time Position Orientation Groundspeed Altitude Reporting Facility
EDT Latitude Longitude Course Direction KTS MPH feet Rate Location/Type
12:33PM 44.5972 -108.9831 11° North 85 98 7,100  Level Salt Lake Center
12:34PM 44.6197 -108.9694 23° Northeast 87 100 7,600 480 Climbing Salt Lake Center
12:35PM 44.6469 -108.9567 18° North 87 100 8,100 420 Climbing Salt Lake Center
12:36PM 44.6708 -108.9447 20° North 88 101 8,500 360 Climbing Salt Lake Center
12:37PM 44.6953 -108.9372 12° North 90 104 8,900 300 Climbing Salt Lake Center
12:38PM 44.6904 -108.9615 11° North  Level Estimated
12:38PM 44.7189 -108.9375 360° North 87 100 9,200  Level Salt Lake Center
12:39PM 44.7414 -108.9300 13° North 85 98 9,400 240 Climbing Salt Lake Center
12:40PM 44.7656 -108.9233 11° North 86 99 9,700 240 Climbing Salt Lake Center
12:41PM 44.7961 -108.9142 12° North 89 102 10,000 240 Climbing Salt Lake Center
12:42PM 44.8217 -108.9064 12° North 92 106 10,200 60 Climbing Salt Lake Center
12:43PM 44.8494 -108.9017 North 95 109 10,200 -60 Level Salt Lake Center
12:44PM 44.8819 -108.8956 North 104 120 10,100 -60 Descending Salt Lake Center
12:45PM 44.9158 -108.8931 North 113 130 10,100  Level Salt Lake Center
12:46PM 44.9492 -108.8811 14° North 118 136 10,100  Level Salt Lake Center
12:47PM 44.9861 -108.8675 15° North 118 136 10,100  Level Salt Lake Center
12:48PM 45.0164 -108.8572 13° North 116 133 10,100  Level Salt Lake Center
12:49PM 45.0475 -108.8503 North 114 131 10,100  Level Salt Lake Center
12:50PM 45.0781 -108.8422 11° North 113 130 10,200 -60 Climbing Salt Lake Center
12:51PM 45.1108 -108.8322 12° North 109 125 10,000 -120 Descending Salt Lake Center
12:52PM 45.1394 -108.8214 15° North 108 124 10,000  Level Salt Lake Center
12:53PM 45.1708 -108.8078 17° North 109 125 10,100  Climbing Salt Lake Center
12:54PM 45.2014 -108.8008 North 113 130 10,000 -60 Descending Salt Lake Center
12:55PM 45.2350 -108.7903 12° North 115 132 10,000  Level Salt Lake Center
12:56PM 45.2647 -108.7806 13° North 111 128 10,000  Level Salt Lake Center
12:57PM 45.2964 -108.7719 11° North 109 125 10,100  Climbing Salt Lake Center
12:58PM 45.3281 -108.7611 14° North 117 135 10,000  Descending Salt Lake Center
01:00PM 45.3606 -108.7519 11° North 112 129 10,100 -120 Climbing Salt Lake Center
01:01PM 45.3917 -108.7492 North 113 130 9,800 -540 Descending Salt Lake Center
01:02PM 45.4256 -108.7361 15° North 118 136 9,100 -720 Descending Salt Lake Center
01:03PM 45.4589 -108.7269 11° North 123 142 8,400 -720 Descending Salt Lake Center
01:04PM 45.4950 -108.7156 12° North 123 142 7,700 -720 Descending Salt Lake Center
01:05PM 45.5211 -108.6831 41° Northeast 142 163 7,000 -600 Descending Salt Lake Center
01:06PM 45.5389 -108.6300 64° Northeast 141 162 6,500 -300 Descending Salt Lake Center
01:07PM 45.5553 -108.5856 62° Northeast 130 150 6,500  Level Salt Lake Center
01:08PM 45.5750 -108.5386 59° Northeast 129 148 6,500  Level Salt Lake Center
01:09PM 45.5939 -108.4975 57° Northeast 126 145 6,600 -120 Climbing Salt Lake Center
01:10PM 45.6147 -108.4511 57° Northeast 129 148 6,300 -300 Descending Salt Lake Center
01:11PM 45.6322 -108.4044 62° Northeast 135 155 6,000 -180 Descending Salt Lake Center
01:12PM 45.6522 -108.3619 56° Northeast 122 140 6,000  Level Salt Lake Center
01:13PM 45.6708 -108.3242 55° Northeast 117 135 6,000  Level Salt Lake Center
01:14PM 45.6897 -108.2811 58° Northeast 120 138 6,000 -120 Level Salt Lake Center
01:15PM 45.7106 -108.2686 23° Northeast 107 123 5,800 -180 Descending Salt Lake Center
01:16PM 45.7372 -108.2897 331° Northwest 102 117 5,700 -120 Descending Salt Lake Center
01:17PM 45.7469 -108.3189 296° West 91 105 5,600  Descending Salt Lake Center
01:18PM 45.7550 -108.3489 291° West 76 87 5,700 -60 Climbing Salt Lake Center
01:19PM 45.7622 -108.3758 291° West 75 86 5,500 -300 Descending Salt Lake Center
01:20PM 45.7719 -108.4100 292° West 85 98 5,100 -420 Descending Salt Lake Center
01:21PM 45.7808 -108.4403 293° West 85 98 4,700 -480 Descending Salt Lake Center
01:22PM 45.7886 -108.4686 291° West 81 93 4,200 -480 Descending Salt Lake Center
01:23PM 45.7967 -108.4967 292° West 73 84 3,800 -420 Descending Salt Lake Center